createdAt,value
2023-02-22T00:04:15.487Z,10.1
2023-02-22T00:09:15.469Z,10.1
2023-02-22T00:14:15.521Z,10.1
2023-02-22T00:19:15.498Z,10.1
2023-02-22T00:24:15.504Z,10.1
2023-02-22T00:29:15.621Z,10.1
2023-02-22T00:34:15.555Z,10
2023-02-22T00:39:15.810Z,10
2023-02-22T00:44:15.731Z,10
2023-02-22T00:49:15.756Z,10
2023-02-22T00:54:15.798Z,10
2023-02-22T00:59:15.783Z,9.9
2023-02-22T01:04:15.664Z,9.9
2023-02-22T01:09:15.831Z,9.9
2023-02-22T01:14:15.984Z,9.9
2023-02-22T01:19:16.052Z,9.9
2023-02-22T01:24:15.862Z,9.9
2023-02-22T01:29:15.870Z,9.9
2023-02-22T01:34:16.115Z,9.9
2023-02-22T01:39:16.268Z,9.9
2023-02-22T01:44:16.067Z,9.8
2023-02-22T01:49:16.052Z,9.8
2023-02-22T01:54:16.211Z,9.8
2023-02-22T01:59:16.214Z,9.8
2023-02-22T02:04:16.417Z,9.8
2023-02-22T02:09:16.501Z,9.8
2023-02-22T02:14:16.320Z,9.8
2023-02-22T02:19:16.479Z,9.8
2023-02-22T02:24:16.246Z,9.8
2023-02-22T02:29:16.309Z,9.7
2023-02-22T02:34:16.282Z,9.7
2023-02-22T02:39:16.401Z,9.7
2023-02-22T02:44:16.631Z,9.7
2023-02-22T02:49:16.494Z,9.7
2023-02-22T02:54:16.480Z,9.7
2023-02-22T02:59:16.509Z,9.7
2023-02-22T03:04:16.825Z,9.7
2023-02-22T03:09:17.098Z,9.7
2023-02-22T03:14:16.601Z,9.6
2023-02-22T03:19:16.704Z,9.6
2023-02-22T03:24:16.583Z,9.6
2023-02-22T03:29:16.815Z,9.6
2023-02-22T03:34:16.647Z,9.6
2023-02-22T03:39:16.614Z,9.6
2023-02-22T03:44:16.618Z,9.6
2023-02-22T03:49:16.585Z,9.5
2023-02-22T03:54:16.775Z,9.5
2023-02-22T03:59:16.613Z,9.5
2023-02-22T04:04:16.644Z,9.4
2023-02-22T04:09:16.634Z,9.4
2023-02-22T04:14:16.633Z,9.4
2023-02-22T04:19:16.610Z,9.4
2023-02-22T04:24:16.581Z,9.4
2023-02-22T04:29:16.654Z,9.3
2023-02-22T04:34:16.579Z,9.3
2023-02-22T04:39:16.691Z,9.3
2023-02-22T04:44:16.588Z,9.3
2023-02-22T04:49:16.583Z,9.3
2023-02-22T04:54:16.609Z,9.3
2023-02-22T04:59:16.595Z,9.2
2023-02-22T05:04:16.800Z,9.2
2023-02-22T05:09:16.628Z,9.2
2023-02-22T05:14:16.582Z,9.2
2023-02-22T05:19:16.609Z,9.1
2023-02-22T05:24:16.556Z,9.1
2023-02-22T05:29:16.560Z,9.1
2023-02-22T05:34:16.546Z,9.1
2023-02-22T05:39:16.686Z,9.1
2023-02-22T05:44:16.577Z,9.1
2023-02-22T05:49:16.604Z,9.1
2023-02-22T05:54:16.590Z,9
2023-02-22T05:59:16.641Z,9
2023-02-22T06:04:16.601Z,9
2023-02-22T06:09:16.605Z,9
2023-02-22T06:14:16.781Z,9
2023-02-22T06:19:16.682Z,9
2023-02-22T06:24:16.647Z,8.9
2023-02-22T06:29:16.633Z,8.9
2023-02-22T06:34:17.151Z,8.9
2023-02-22T06:39:16.718Z,8.9
2023-02-22T06:44:17.073Z,8.9
2023-02-22T06:49:16.886Z,8.9
2023-02-22T06:54:17.168Z,9
2023-02-22T06:59:17.260Z,9
2023-02-22T07:04:17.136Z,9
2023-02-22T07:09:16.944Z,9
2023-02-22T07:14:17.175Z,9
2023-02-22T07:19:16.989Z,9
2023-02-22T07:24:16.986Z,9
2023-02-22T07:29:16.962Z,9.1
2023-02-22T07:34:17.438Z,9.1
2023-02-22T07:39:17.246Z,9.1
2023-02-22T07:44:17.900Z,9.1
2023-02-22T07:49:17.228Z,9.1
2023-02-22T07:54:17.246Z,9.1
2023-02-22T07:59:17.266Z,9.1
2023-02-22T08:04:17.291Z,9.1
2023-02-22T08:10:59.036Z,9.2
2023-02-22T08:15:59.110Z,9.2
2023-02-22T08:20:59.022Z,9.3
2023-02-22T08:25:59.060Z,9.3
2023-02-22T08:30:58.926Z,9.3
2023-02-22T08:35:59.112Z,9.3
2023-02-22T08:40:58.920Z,9.3
2023-02-22T08:45:59.015Z,9.3
2023-02-22T08:50:58.943Z,9.3
2023-02-22T08:55:58.972Z,9.4
2023-02-22T09:00:58.934Z,9.4
2023-02-22T09:05:58.981Z,9.4
2023-02-22T09:10:58.915Z,9.4
2023-02-22T09:15:58.981Z,9.5
2023-02-22T09:20:58.942Z,9.5
2023-02-22T09:25:58.984Z,9.6
2023-02-22T09:30:58.954Z,9.6
2023-02-22T09:35:59.005Z,9.6
2023-02-22T09:40:59.102Z,9.6
2023-02-22T09:45:58.984Z,9.6
2023-02-22T09:50:58.899Z,9.7
2023-02-22T09:55:58.972Z,9.7
2023-02-22T10:00:58.945Z,9.8
2023-02-22T10:05:58.973Z,9.8
2023-02-22T10:10:58.916Z,9.8
2023-02-22T10:15:58.989Z,9.8
2023-02-22T10:20:58.957Z,9.8
2023-02-22T10:25:58.960Z,9.9
2023-02-22T10:30:59.101Z,9.9
2023-02-22T10:35:59.036Z,9.9
2023-02-22T10:40:59.119Z,9.9
2023-02-22T10:45:58.989Z,9.9
2023-02-22T10:50:58.961Z,10
2023-02-22T10:55:59.126Z,10
2023-02-22T11:00:59.112Z,10.1
2023-02-22T11:05:59.020Z,10.1
2023-02-22T11:10:58.997Z,10.1
2023-02-22T11:15:59.079Z,10.1
2023-02-22T11:20:58.947Z,10.1
2023-02-22T11:25:58.958Z,10.2
2023-02-22T11:30:59.222Z,10.2
2023-02-22T11:35:59.014Z,10.3
2023-02-22T11:40:59.081Z,10.3
2023-02-22T11:46:00.547Z,10.3
2023-02-22T11:50:58.979Z,10.3
2023-02-22T11:55:59.010Z,10.4
2023-02-22T12:00:58.957Z,10.4
2023-02-22T12:05:58.996Z,10.4
2023-02-22T12:10:59.088Z,10.4
2023-02-22T12:15:59.126Z,10.5
2023-02-22T12:20:58.956Z,10.5
2023-02-22T12:25:58.954Z,10.5
2023-02-22T12:30:59.001Z,10.6
2023-02-22T12:35:59.148Z,10.6
2023-02-22T12:40:59.145Z,10.6
2023-02-22T12:45:59.485Z,10.6
2023-02-22T12:50:58.955Z,10.6
2023-02-22T12:55:59.091Z,10.6
2023-02-22T13:00:58.976Z,10.7
2023-02-22T13:05:58.985Z,10.7
2023-02-22T13:10:58.970Z,10.7
2023-02-22T13:15:59.082Z,10.8
2023-02-22T13:20:58.953Z,10.8
2023-02-22T13:25:58.972Z,10.8
2023-02-22T13:30:58.990Z,10.8
2023-02-22T13:35:59.016Z,10.8
2023-02-22T13:40:59.010Z,10.8
2023-02-22T13:45:58.967Z,10.9
2023-02-22T13:50:58.978Z,10.9
2023-02-22T13:55:59.019Z,10.9
2023-02-22T14:00:58.970Z,10.9
2023-02-22T14:05:58.975Z,10.9
2023-02-22T14:10:58.961Z,10.9
2023-02-22T14:15:59.051Z,10.9
2023-02-22T14:20:58.938Z,10.9
2023-02-22T14:25:58.993Z,10.9
2023-02-22T14:30:59.009Z,10.9
2023-02-22T14:35:59.013Z,10.9
2023-02-22T14:40:58.953Z,10.9
2023-02-22T14:45:59.448Z,10.9
2023-02-22T14:51:00.644Z,10.9
2023-02-22T14:55:59.022Z,10.9
2023-02-22T15:00:58.964Z,10.9
2023-02-22T15:05:59.009Z,10.9
2023-02-22T15:10:58.959Z,10.9
2023-02-22T15:16:01.320Z,10.9
2023-02-22T15:20:59.002Z,10.9
2023-02-22T15:25:58.987Z,10.9
2023-02-22T15:30:58.958Z,11
2023-02-22T15:35:59.047Z,11
2023-02-22T15:40:58.966Z,11
2023-02-22T15:45:59.078Z,11
2023-02-22T15:50:58.964Z,10.9
2023-02-22T15:55:58.996Z,10.9
2023-02-22T16:00:59.006Z,10.9
2023-02-22T16:05:58.976Z,10.9
2023-02-22T16:10:58.992Z,10.9
2023-02-22T16:15:59.010Z,10.9
2023-02-22T16:20:58.970Z,10.9
2023-02-22T16:25:58.972Z,10.9
2023-02-22T16:30:59.084Z,10.9
2023-02-22T16:35:59.145Z,10.9
2023-02-22T16:40:59.296Z,10.9
2023-02-22T16:45:59.026Z,10.9
2023-02-22T16:50:58.979Z,10.9
2023-02-22T16:55:59.056Z,10.8
2023-02-22T17:00:58.991Z,10.8
2023-02-22T17:05:58.976Z,10.8
2023-02-22T17:10:58.958Z,10.8
2023-02-22T17:15:59.014Z,10.8
2023-02-22T17:20:58.946Z,10.8
2023-02-22T17:25:58.976Z,10.7
2023-02-22T17:30:58.962Z,10.7
2023-02-22T17:35:59.023Z,10.7
2023-02-22T17:40:58.992Z,10.6
2023-02-22T17:45:59.012Z,10.6
2023-02-22T17:50:59.003Z,10.6
2023-02-22T17:55:58.977Z,10.6
2023-02-22T18:00:59.297Z,10.5
2023-02-22T18:05:58.972Z,10.5
2023-02-22T18:10:59.006Z,10.5
2023-02-22T18:15:59.030Z,10.4
2023-02-22T18:20:59.010Z,10.4
2023-02-22T18:26:09.986Z,10.4
2023-02-22T18:30:58.998Z,10.4
2023-02-22T18:35:58.996Z,10.3
2023-02-22T18:40:59.018Z,10.3
2023-02-22T18:45:58.968Z,10.3
2023-02-22T18:50:59.256Z,10.3
2023-02-22T18:55:58.990Z,10.2
2023-02-22T19:00:58.938Z,10.2
2023-02-22T19:05:58.974Z,10.1
2023-02-22T19:10:59.082Z,10.1
2023-02-22T19:15:59.021Z,10.1
2023-02-22T19:20:58.954Z,10.1
2023-02-22T19:25:59.111Z,10
2023-02-22T19:30:59.241Z,10
2023-02-22T19:35:59.125Z,9.9
2023-02-22T19:40:58.971Z,9.9
2023-02-22T19:45:59.096Z,9.9
2023-02-22T19:50:59.039Z,9.9
2023-02-22T19:55:59.007Z,9.8
2023-02-22T20:00:59.043Z,9.8
2023-02-22T20:05:58.994Z,9.8
2023-02-22T20:10:59.066Z,9.8
2023-02-22T20:15:59.140Z,9.7
2023-02-22T20:20:59.060Z,9.6
2023-02-22T20:25:59.106Z,9.6
2023-02-22T20:30:58.993Z,9.6
2023-02-22T20:35:59.187Z,9.5
2023-02-22T20:40:59.010Z,9.4
2023-02-22T20:45:59.078Z,9.4
2023-02-22T20:50:58.983Z,9.4
2023-02-22T20:55:59.038Z,9.3
2023-02-22T21:00:58.999Z,9.3
2023-02-22T21:05:59.010Z,9.3
2023-02-22T21:10:58.973Z,9.2
2023-02-22T21:15:59.018Z,9.2
2023-02-22T21:25:58.978Z,9.1
2023-02-22T21:30:59.068Z,9
2023-02-22T21:35:59.019Z,9
2023-02-22T21:40:58.973Z,8.9
2023-02-22T21:45:59.139Z,8.9
2023-02-22T21:50:59.001Z,8.8
2023-02-22T21:55:59.183Z,8.8
2023-02-22T22:00:59.032Z,8.8
2023-02-22T22:05:59.191Z,8.7
2023-02-22T22:10:59.004Z,8.7
2023-02-22T22:15:59.080Z,8.6
2023-02-22T22:20:59.026Z,8.6
2023-02-22T22:25:59.034Z,8.5
2023-02-22T22:30:59.100Z,8.5
2023-02-22T22:35:59.021Z,8.4
2023-02-22T22:40:59.006Z,8.4
2023-02-22T22:45:59.040Z,8.4
2023-02-22T22:50:59.023Z,8.3
2023-02-22T22:55:59.038Z,8.3
2023-02-22T23:00:59.043Z,8.2
2023-02-22T23:05:59.048Z,8.2
2023-02-22T23:10:59.030Z,8.1
2023-02-22T23:15:59.071Z,8.1
2023-02-22T23:20:59.037Z,8.1
2023-02-22T23:25:59.046Z,8.1
2023-02-22T23:30:59.080Z,7.9
2023-02-22T23:35:59.062Z,7.9
2023-02-22T23:40:59.034Z,7.9
2023-02-22T23:45:59.044Z,7.9
2023-02-22T23:50:59.059Z,7.8
2023-02-22T23:55:59.072Z,7.8
